Time,TemperatureF,DewpointF,PressureIn,WindDirection,WindDirectionDegrees,WindSpeedMPH,WindSpeedGustMPH,Humidity,HourlyPrecipIn,Conditions,Clouds,dailyrainin,SoftwareType,DateUTC
2013-05-24 00:03:00,51.8,25.7,23.45,West,280,3.1,3.1,36,0.00,,---,0.00,VWS V14.00,2013-05-24 07:03:00,
2013-05-24 00:08:00,51.8,25.7,23.45,WSW,242,0.0,0.0,36,0.00,,---,0.00,VWS V14.00,2013-05-24 07:08:00,
2013-05-24 00:13:00,51.8,25.7,23.45,West,262,2.2,2.7,36,0.00,,---,0.00,VWS V14.00,2013-05-24 07:13:00,
2013-05-24 00:18:00,51.6,26.2,23.45,West,261,0.0,0.0,37,0.00,,---,0.00,VWS V14.00,2013-05-24 07:18:00,
2013-05-24 00:23:00,51.4,26.0,23.45,West,261,3.1,3.1,37,0.00,,---,0.00,VWS V14.00,2013-05-24 07:23:00,
2013-05-24 00:28:00,51.3,25.9,23.45,West,259,0.0,0.0,37,0.00,,---,0.00,VWS V14.00,2013-05-24 07:28:00,
2013-05-24 00:33:00,50.9,25.6,23.45,West,259,0.0,0.0,37,0.00,,---,0.00,VWS V14.00,2013-05-24 07:33:00,
2013-05-24 00:38:00,50.5,25.2,23.45,West,260,0.0,0.0,37,0.00,,---,0.00,VWS V14.00,2013-05-24 07:38:00,
2013-05-24 00:43:00,50.2,24.9,23.45,West,260,0.0,0.0,37,0.00,,---,0.00,VWS V14.00,2013-05-24 07:43:00,
2013-05-24 00:48:00,49.8,24.6,23.45,West,260,0.0,0.0,37,0.00,,---,0.00,VWS V14.00,2013-05-24 07:48:00,
2013-05-24 00:53:00,49.5,24.3,23.45,West,260,0.0,0.0,37,0.00,,---,0.00,VWS V14.00,2013-05-24 07:53:00,
2013-05-24 00:58:00,49.1,24.0,23.45,West,260,0.0,0.0,37,0.00,,---,0.00,VWS V14.00,2013-05-24 07:58:00,
2013-05-24 01:03:00,48.6,23.5,23.45,West,260,0.0,0.0,37,0.00,,---,0.00,VWS V14.00,2013-05-24 08:03:00,
2013-05-24 01:08:00,48.0,23.0,23.45,West,260,0.0,0.0,37,0.00,,---,0.00,VWS V14.00,2013-05-24 08:08:00,
2013-05-24 01:13:00,47.7,22.7,23.45,West,260,0.0,0.0,37,0.00,,---,0.00,VWS V14.00,2013-05-24 08:13:00,
2013-05-24 01:18:00,47.1,22.2,23.45,West,260,0.0,0.0,37,0.00,,---,0.00,VWS V14.00,2013-05-24 08:18:00,
2013-05-24 01:23:00,46.6,21.7,23.45,West,260,0.0,0.0,37,0.00,,---,0.00,VWS V14.00,2013-05-24 08:23:00,
2013-05-24 01:28:00,46.0,21.9,23.45,West,260,0.0,0.0,38,0.00,,---,0.00,VWS V14.00,2013-05-24 08:28:00,
2013-05-24 01:33:00,45.5,21.4,23.45,West,260,0.0,0.0,38,0.00,,---,0.00,VWS V14.00,2013-05-24 08:33:00,
2013-05-24 01:38:00,45.1,21.1,23.45,West,260,0.0,0.0,38,0.00,,---,0.00,VWS V14.00,2013-05-24 08:38:00,
2013-05-24 01:43:00,45.0,20.9,23.45,West,260,0.0,0.0,38,0.00,,---,0.00,VWS V14.00,2013-05-24 08:43:00,
2013-05-24 01:48:00,44.6,20.6,23.45,West,260,0.0,0.0,38,0.00,,---,0.00,VWS V14.00,2013-05-24 08:48:00,
2013-05-24 01:53:00,43.9,19.9,23.45,West,260,0.0,0.0,38,0.00,,---,0.00,VWS V14.00,2013-05-24 08:53:00,
2013-05-24 01:58:00,43.5,19.6,23.45,West,260,0.0,0.0,38,0.00,,---,0.00,VWS V14.00,2013-05-24 08:58:00,
2013-05-24 02:03:00,43.2,19.3,23.45,West,260,0.0,0.0,38,0.00,,---,0.00,VWS V14.00,2013-05-24 09:03:00,
2013-05-24 02:08:00,42.8,19.0,23.45,West,260,0.0,0.0,38,0.00,,---,0.00,VWS V14.00,2013-05-24 09:08:00,
2013-05-24 02:13:00,42.8,19.0,23.45,West,260,0.0,0.0,38,0.00,,---,0.00,VWS V14.00,2013-05-24 09:13:00,
2013-05-24 02:19:00,42.4,19.2,23.45,West,260,0.0,0.0,39,0.00,,---,0.00,VWS V14.00,2013-05-24 09:19:00,
2013-05-24 02:24:00,42.3,19.1,23.45,West,260,0.0,0.0,39,0.00,,---,0.00,VWS V14.00,2013-05-24 09:24:00,
2013-05-24 02:29:00,42.1,18.9,23.45,West,260,0.0,0.0,39,0.00,,---,0.00,VWS V14.00,2013-05-24 09:29:00,
2013-05-24 02:34:00,41.7,18.6,23.45,West,260,0.0,0.0,39,0.00,,---,0.00,VWS V14.00,2013-05-24 09:34:00,
2013-05-24 02:39:00,41.4,18.3,23.45,West,260,0.0,0.0,39,0.00,,---,0.00,VWS V14.00,2013-05-24 09:39:00,
2013-05-24 02:44:00,41.2,18.1,23.45,West,260,0.0,0.0,39,0.00,,---,0.00,VWS V14.00,2013-05-24 09:44:00,
2013-05-24 02:49:00,41.0,18.0,23.45,West,260,0.0,0.0,39,0.00,,---,0.00,VWS V14.00,2013-05-24 09:49:00,
2013-05-24 02:54:00,40.6,17.6,23.45,West,260,0.0,0.0,39,0.00,,---,0.00,VWS V14.00,2013-05-24 09:54:00,
2013-05-24 02:59:00,40.5,17.5,23.45,West,260,0.0,0.0,39,0.00,,---,0.00,VWS V14.00,2013-05-24 09:59:00,
2013-05-24 03:04:00,40.3,17.3,23.45,West,260,0.0,0.0,39,0.00,,---,0.00,VWS V14.00,2013-05-24 10:04:00,
2013-05-24 03:09:00,40.1,17.1,23.45,West,260,0.0,0.0,39,0.00,,---,0.00,VWS V14.00,2013-05-24 10:09:00,
2013-05-24 03:14:00,39.9,17.0,23.45,West,260,0.0,0.0,39,0.00,,---,0.00,VWS V14.00,2013-05-24 10:14:00,
2013-05-24 03:19:00,39.7,16.8,23.45,West,260,0.0,0.0,39,0.00,,---,0.00,VWS V14.00,2013-05-24 10:19:00,
2013-05-24 03:24:00,39.4,16.5,23.45,West,260,0.0,0.0,39,0.00,,---,0.00,VWS V14.00,2013-05-24 10:24:00,
2013-05-24 03:29:00,39.2,16.3,23.45,West,260,0.0,0.0,39,0.00,,---,0.00,VWS V14.00,2013-05-24 10:29:00,
2013-05-24 03:34:00,38.8,16.0,23.45,West,260,0.0,0.0,39,0.00,,---,0.00,VWS V14.00,2013-05-24 10:34:00,
2013-05-24 03:39:00,38.7,15.9,23.45,West,260,0.0,0.0,39,0.00,,---,0.00,VWS V14.00,2013-05-24 10:39:00,
2013-05-24 03:44:00,38.5,15.7,23.48,West,260,0.0,0.0,39,0.00,,---,0.00,VWS V14.00,2013-05-24 10:44:00,
2013-05-24 03:49:00,38.1,15.4,23.48,West,260,0.0,0.0,39,0.00,,---,0.00,VWS V14.00,2013-05-24 10:49:00,
2013-05-24 03:54:00,38.1,15.4,23.48,West,260,0.0,0.0,39,0.00,,---,0.00,VWS V14.00,2013-05-24 10:54:00,
2013-05-24 03:59:00,37.9,15.2,23.48,West,260,0.0,0.0,39,0.00,,---,0.00,VWS V14.00,2013-05-24 10:59:00,
2013-05-24 04:04:00,37.6,14.9,23.48,West,260,0.0,0.0,39,0.00,,---,0.00,VWS V14.00,2013-05-24 11:04:00,
2013-05-24 04:09:00,37.4,14.7,23.48,West,260,0.0,0.0,39,0.00,,---,0.00,VWS V14.00,2013-05-24 11:09:00,
2013-05-24 04:14:00,37.4,14.7,23.48,West,260,0.0,0.0,39,0.00,,---,0.00,VWS V14.00,2013-05-24 11:14:00,
2013-05-24 04:19:00,37.0,15.0,23.48,West,260,0.0,0.0,40,0.00,,---,0.00,VWS V14.00,2013-05-24 11:19:00,
2013-05-24 04:24:00,36.9,14.8,23.48,West,260,0.0,0.0,40,0.00,,---,0.00,VWS V14.00,2013-05-24 11:24:00,
2013-05-24 04:30:00,36.7,14.6,23.48,West,260,0.0,0.0,40,0.00,,---,0.00,VWS V14.00,2013-05-24 11:30:00,
2013-05-24 04:35:00,36.7,14.6,23.48,West,260,0.0,0.0,40,0.00,,---,0.00,VWS V14.00,2013-05-24 11:35:00,
2013-05-24 04:40:00,36.5,14.5,23.48,West,260,0.0,0.0,40,0.00,,---,0.00,VWS V14.00,2013-05-24 11:40:00,
2013-05-24 04:45:00,36.3,14.3,23.48,West,260,0.0,0.0,40,0.00,,---,0.00,VWS V14.00,2013-05-24 11:45:00,
2013-05-24 04:50:00,36.1,14.2,23.48,West,260,0.0,0.0,40,0.00,,---,0.00,VWS V14.00,2013-05-24 11:50:00,
2013-05-24 04:55:00,36.1,14.2,23.48,West,260,0.0,0.0,40,0.00,,---,0.00,VWS V14.00,2013-05-24 11:55:00,
2013-05-24 05:00:00,36.0,14.0,23.48,West,260,0.0,0.0,40,0.00,,---,0.00,VWS V14.00,2013-05-24 12:00:00,
2013-05-24 05:05:00,35.6,13.7,23.48,West,260,0.0,0.0,40,0.00,,---,0.00,VWS V14.00,2013-05-24 12:05:00,
2013-05-24 05:10:00,35.6,13.7,23.48,West,260,0.0,0.0,40,0.00,,---,0.00,VWS V14.00,2013-05-24 12:10:00,
2013-05-24 05:15:00,35.4,13.5,23.48,West,260,0.0,0.0,40,0.00,,---,0.00,VWS V14.00,2013-05-24 12:15:00,
2013-05-24 05:20:00,35.4,13.5,23.48,West,260,0.0,0.0,40,0.00,,---,0.00,VWS V14.00,2013-05-24 12:20:00,
2013-05-24 05:25:00,35.2,13.4,23.48,West,260,0.0,0.0,40,0.00,,---,0.00,VWS V14.00,2013-05-24 12:25:00,
2013-05-24 05:30:00,35.1,13.2,23.48,West,260,0.0,0.0,40,0.00,,---,0.00,VWS V14.00,2013-05-24 12:30:00,
2013-05-24 05:35:00,34.9,13.0,23.48,West,260,0.0,0.0,40,0.00,,---,0.00,VWS V14.00,2013-05-24 12:35:00,
2013-05-24 05:40:00,34.9,13.0,23.48,West,260,0.0,0.0,40,0.00,,---,0.00,VWS V14.00,2013-05-24 12:40:00,
2013-05-24 05:45:00,34.7,12.9,23.48,West,260,0.0,0.0,40,0.00,,---,0.00,VWS V14.00,2013-05-24 12:45:00,
2013-05-24 05:50:00,34.9,13.0,23.48,West,260,0.0,0.0,40,0.00,,---,0.00,VWS V14.00,2013-05-24 12:50:00,
2013-05-24 05:55:00,35.1,13.2,23.48,West,260,0.0,0.0,40,0.00,,---,0.00,VWS V14.00,2013-05-24 12:55:00,
2013-05-24 06:00:00,35.1,13.2,23.48,West,260,0.0,0.0,40,0.00,,---,0.00,VWS V14.00,2013-05-24 13:00:00,
2013-05-24 06:05:00,35.4,13.5,23.48,West,260,0.0,0.0,40,0.00,,---,0.00,VWS V14.00,2013-05-24 13:05:00,
2013-05-24 06:10:00,35.6,13.7,23.48,West,260,0.0,0.0,40,0.00,,---,0.00,VWS V14.00,2013-05-24 13:10:00,
2013-05-24 06:15:00,36.0,14.0,23.48,West,260,0.0,0.0,40,0.00,,---,0.00,VWS V14.00,2013-05-24 13:15:00,
2013-05-24 06:21:00,36.5,14.5,23.48,West,260,0.0,0.0,40,0.00,,---,0.00,VWS V14.00,2013-05-24 13:21:00,
2013-05-24 06:26:00,37.0,15.0,23.48,West,260,0.0,0.0,40,0.00,,---,0.00,VWS V14.00,2013-05-24 13:26:00,
2013-05-24 06:31:00,37.6,14.9,23.48,West,260,0.0,0.0,39,0.00,,---,0.00,VWS V14.00,2013-05-24 13:31:00,
2013-05-24 06:36:00,38.5,15.7,23.48,West,260,0.0,0.0,39,0.00,,---,0.00,VWS V14.00,2013-05-24 13:36:00,
2013-05-24 06:41:00,39.2,16.3,23.48,West,260,0.0,0.0,39,0.00,,---,0.00,VWS V14.00,2013-05-24 13:41:00,
2013-05-24 06:46:00,39.9,17.0,23.51,West,260,0.0,0.0,39,0.00,,---,0.00,VWS V14.00,2013-05-24 13:46:00,
2013-05-24 06:51:00,40.6,17.6,23.51,West,260,0.0,0.0,39,0.00,,---,0.00,VWS V14.00,2013-05-24 13:51:00,
2013-05-24 06:56:00,41.5,18.4,23.51,West,260,0.0,0.0,39,0.00,,---,0.00,VWS V14.00,2013-05-24 13:56:00,
2013-05-24 07:01:00,42.3,19.1,23.51,West,260,0.0,0.0,39,0.00,,---,0.00,VWS V14.00,2013-05-24 14:01:00,
2013-05-24 07:06:00,43.3,19.5,23.51,West,260,0.0,0.0,38,0.00,,---,0.00,VWS V14.00,2013-05-24 14:06:00,
2013-05-24 07:11:00,44.4,20.4,23.51,West,260,0.0,0.0,38,0.00,,---,0.00,VWS V14.00,2013-05-24 14:11:00,
2013-05-24 07:16:00,45.3,21.2,23.51,West,260,0.0,0.0,38,0.00,,---,0.00,VWS V14.00,2013-05-24 14:16:00,
2013-05-24 07:21:00,46.4,21.6,23.51,West,260,0.0,0.0,37,0.00,,---,0.00,VWS V14.00,2013-05-24 14:21:00,
2013-05-24 07:26:00,47.3,22.4,23.51,West,260,0.0,0.0,37,0.00,,---,0.00,VWS V14.00,2013-05-24 14:26:00,
2013-05-24 07:31:00,48.2,23.2,23.51,NNW,345,0.0,0.0,37,0.00,,---,0.00,VWS V14.00,2013-05-24 14:31:00,
2013-05-24 07:36:00,49.5,24.3,23.51,WNW,291,4.0,4.0,37,0.00,,---,0.00,VWS V14.00,2013-05-24 14:36:00,
2013-05-24 07:41:00,50.5,25.2,23.51,West,263,3.6,3.6,37,0.00,,---,0.00,VWS V14.00,2013-05-24 14:41:00,
2013-05-24 07:46:00,51.3,25.9,23.51,SSW,197,2.2,2.7,37,0.00,,---,0.00,VWS V14.00,2013-05-24 14:46:00,
2013-05-24 07:51:00,52.2,26.0,23.51,SSW,194,0.0,0.0,36,0.00,,---,0.00,VWS V14.00,2013-05-24 14:51:00,
2013-05-24 07:56:00,53.1,26.8,23.51,SW,232,0.0,2.2,36,0.00,,---,0.00,VWS V14.00,2013-05-24 14:56:00,
2013-05-24 08:01:00,53.8,27.5,23.48,WSW,237,0.0,0.0,36,0.00,,---,0.00,VWS V14.00,2013-05-24 15:01:00,
2013-05-24 08:06:00,54.5,28.1,23.48,SSW,199,0.0,2.2,36,0.00,,---,0.00,VWS V14.00,2013-05-24 15:06:00,
2013-05-24 08:11:00,55.0,28.6,23.48,SSW,204,3.6,4.9,36,0.00,,---,0.00,VWS V14.00,2013-05-24 15:11:00,
2013-05-24 08:17:00,55.6,28.4,23.51,South,186,2.7,3.1,35,0.00,,---,0.00,VWS V14.00,2013-05-24 15:17:00,
2013-05-24 08:22:00,56.1,28.9,23.51,NNW,330,0.0,3.6,35,0.00,,---,0.00,VWS V14.00,2013-05-24 15:22:00,
2013-05-24 08:27:00,56.3,29.0,23.51,SW,235,2.2,2.7,35,0.00,,---,0.00,VWS V14.00,2013-05-24 15:27:00,
2013-05-24 08:32:00,56.8,29.5,23.51,South,191,3.1,3.1,35,0.00,,---,0.00,VWS V14.00,2013-05-24 15:32:00,
2013-05-24 08:37:00,57.2,29.8,23.51,SSW,204,3.1,5.8,35,0.00,,---,0.00,VWS V14.00,2013-05-24 15:37:00,
2013-05-24 08:42:00,57.6,30.1,23.51,South,182,0.0,3.1,35,0.00,,---,0.00,VWS V14.00,2013-05-24 15:42:00,
2013-05-24 08:47:00,57.7,30.3,23.51,WSW,247,2.7,3.1,35,0.00,,---,0.00,VWS V14.00,2013-05-24 15:47:00,
2013-05-24 08:52:00,58.1,30.6,23.51,SW,221,5.4,5.4,35,0.00,,---,0.00,VWS V14.00,2013-05-24 15:52:00,
2013-05-24 08:57:00,58.3,30.8,23.51,WSW,240,3.6,5.4,35,0.00,,---,0.00,VWS V14.00,2013-05-24 15:57:00,
2013-05-24 09:02:00,58.6,31.1,23.51,WSW,248,4.0,4.0,35,0.00,,---,0.00,VWS V14.00,2013-05-24 16:02:00,
2013-05-24 09:07:00,58.8,31.2,23.51,SSW,205,3.1,3.1,35,0.00,,---,0.00,VWS V14.00,2013-05-24 16:07:00,
2013-05-24 09:12:00,59.2,31.6,23.51,WSW,243,3.1,5.4,35,0.00,,---,0.00,VWS V14.00,2013-05-24 16:12:00,
2013-05-24 09:17:00,59.4,31.7,23.51,SSW,207,3.1,3.1,35,0.00,,---,0.00,VWS V14.00,2013-05-24 16:17:00,
2013-05-24 09:22:00,59.5,31.9,23.51,WNW,283,3.6,4.5,35,0.00,,---,0.00,VWS V14.00,2013-05-24 16:22:00,
2013-05-24 09:27:00,59.7,32.0,23.51,WSW,258,0.0,2.7,35,0.00,,---,0.00,VWS V14.00,2013-05-24 16:27:00,
2013-05-24 09:32:00,60.1,32.4,23.51,West,262,3.6,3.6,35,0.00,,---,0.00,VWS V14.00,2013-05-24 16:32:00,
2013-05-24 09:37:00,60.4,32.7,23.51,SSW,200,3.1,3.6,35,0.00,,---,0.00,VWS V14.00,2013-05-24 16:37:00,
2013-05-24 09:42:00,60.6,32.8,23.51,WSW,250,4.0,6.3,35,0.00,,---,0.00,VWS V14.00,2013-05-24 16:42:00,
2013-05-24 09:47:00,61.0,32.4,23.51,SSE,154,5.4,5.8,34,0.00,,---,0.00,VWS V14.00,2013-05-24 16:47:00,
2013-05-24 09:52:00,61.2,32.6,23.51,West,272,4.0,4.0,34,0.00,,---,0.00,VWS V14.00,2013-05-24 16:52:00,
2013-05-24 09:57:00,61.3,32.8,23.51,SW,224,3.1,4.0,34,0.00,,---,0.00,VWS V14.00,2013-05-24 16:57:00,
2013-05-24 10:02:00,61.5,32.9,23.51,SSW,200,3.1,3.1,34,0.00,,---,0.00,VWS V14.00,2013-05-24 17:02:00,
2013-05-24 10:07:00,61.7,33.1,23.51,South,187,3.6,4.9,34,0.00,,---,0.00,VWS V14.00,2013-05-24 17:07:00,
2013-05-24 10:13:00,62.1,33.4,23.51,WSW,239,4.9,5.8,34,0.00,,---,0.00,VWS V14.00,2013-05-24 17:13:00,
2013-05-24 10:18:00,62.2,33.5,23.51,WSW,257,3.6,5.4,34,0.00,,---,0.00,VWS V14.00,2013-05-24 17:18:00,
2013-05-24 10:23:00,62.6,33.9,23.51,SW,216,4.0,8.1,34,0.00,,---,0.00,VWS V14.00,2013-05-24 17:23:00,
2013-05-24 10:28:00,62.8,34.0,23.51,SSW,203,0.0,4.0,34,0.00,,---,0.00,VWS V14.00,2013-05-24 17:28:00,
2013-05-24 10:33:00,62.8,34.0,23.51,SSW,195,3.6,7.6,34,0.00,,---,0.00,VWS V14.00,2013-05-24 17:33:00,
2013-05-24 10:38:00,63.1,34.3,23.51,SW,232,2.2,3.6,34,0.00,,---,0.00,VWS V14.00,2013-05-24 17:38:00,
2013-05-24 10:43:00,63.3,34.5,23.51,SSE,154,3.6,3.6,34,0.00,,---,0.00,VWS V14.00,2013-05-24 17:43:00,
2013-05-24 10:48:00,63.5,34.7,23.51,SSW,200,3.6,4.0,34,0.00,,---,0.00,VWS V14.00,2013-05-24 17:48:00,
2013-05-24 10:53:00,63.9,35.0,23.51,West,265,5.4,5.8,34,0.00,,---,0.00,VWS V14.00,2013-05-24 17:53:00,
2013-05-24 10:58:00,63.9,35.0,23.51,West,259,3.1,3.1,34,0.00,,---,0.00,VWS V14.00,2013-05-24 17:58:00,
2013-05-24 11:03:00,64.2,35.3,23.51,SSW,213,6.3,6.3,34,0.00,,---,0.00,VWS V14.00,2013-05-24 18:03:00,
2013-05-24 11:08:00,64.4,34.7,23.51,SSW,212,2.7,3.6,33,0.00,,---,0.00,VWS V14.00,2013-05-24 18:08:00,
2013-05-24 11:13:00,64.8,35.0,23.51,SSE,161,5.8,5.8,33,0.00,,---,0.00,VWS V14.00,2013-05-24 18:13:00,
2013-05-24 11:18:00,65.1,35.3,23.51,South,191,4.9,5.8,33,0.00,,---,0.00,VWS V14.00,2013-05-24 18:18:00,
2013-05-24 11:23:00,65.3,35.5,23.51,SSW,210,2.2,5.8,33,0.00,,---,0.00,VWS V14.00,2013-05-24 18:23:00,
2013-05-24 11:29:00,65.7,35.8,23.51,SW,214,4.0,5.4,33,0.00,,---,0.00,VWS V14.00,2013-05-24 18:29:00,
2013-05-24 11:34:00,66.0,36.1,23.51,SW,218,4.9,4.9,33,0.00,,---,0.00,VWS V14.00,2013-05-24 18:34:00,
2013-05-24 11:39:00,66.4,36.4,23.51,SW,221,4.0,5.4,33,0.00,,---,0.00,VWS V14.00,2013-05-24 18:39:00,
2013-05-24 11:44:00,66.7,36.8,23.51,SSW,197,4.0,4.0,33,0.00,,---,0.00,VWS V14.00,2013-05-24 18:44:00,
2013-05-24 11:49:00,67.1,37.1,23.51,SW,218,2.7,4.9,33,0.00,,---,0.00,VWS V14.00,2013-05-24 18:49:00,
2013-05-24 11:54:00,67.3,37.2,23.51,SSE,157,3.6,5.4,33,0.00,,---,0.00,VWS V14.00,2013-05-24 18:54:00,
2013-05-24 11:59:00,67.8,37.7,23.51,SSW,198,4.0,4.0,33,0.00,,---,0.00,VWS V14.00,2013-05-24 18:59:00,
2013-05-24 12:04:00,68.2,38.0,23.51,SSW,204,4.9,4.9,33,0.00,,---,0.00,VWS V14.00,2013-05-24 19:04:00,
2013-05-24 12:09:00,68.7,38.5,23.51,SSE,159,2.7,5.8,33,0.00,,---,0.00,VWS V14.00,2013-05-24 19:09:00,
2013-05-24 12:14:00,68.9,38.6,23.51,SSE,168,2.2,8.7,33,0.00,,---,0.00,VWS V14.00,2013-05-24 19:14:00,
2013-05-24 12:19:00,69.1,38.8,23.51,West,260,6.3,6.3,33,0.00,,---,0.00,VWS V14.00,2013-05-24 19:19:00,
2013-05-24 12:24:00,69.1,38.8,23.51,WSW,257,3.6,5.8,33,0.00,,---,0.00,VWS V14.00,2013-05-24 19:24:00,
2013-05-24 12:29:00,68.9,38.6,23.51,ESE,123,2.2,4.0,33,0.00,,---,0.00,VWS V14.00,2013-05-24 19:29:00,
2013-05-24 12:34:00,68.9,38.6,23.51,WSW,253,4.9,4.9,33,0.00,,---,0.00,VWS V14.00,2013-05-24 19:34:00,
2013-05-24 12:39:00,69.1,38.8,23.51,SW,220,0.0,2.7,33,0.00,,---,0.00,VWS V14.00,2013-05-24 19:39:00,
2013-05-24 12:44:00,69.6,39.3,23.51,South,178,3.6,3.6,33,0.00,,---,0.00,VWS V14.00,2013-05-24 19:44:00,
2013-05-24 12:49:00,70.0,38.8,23.51,SW,235,3.6,3.6,32,0.00,,---,0.00,VWS V14.00,2013-05-24 19:49:00,
2013-05-24 12:54:00,70.5,39.3,23.51,SSE,148,2.7,4.0,32,0.00,,---,0.00,VWS V14.00,2013-05-24 19:54:00,
2013-05-24 12:59:00,70.5,39.3,23.51,WSW,241,4.0,5.4,32,0.00,,---,0.00,VWS V14.00,2013-05-24 19:59:00,
2013-05-24 13:04:00,70.7,39.4,23.51,South,182,4.0,4.0,32,0.00,,---,0.00,VWS V14.00,2013-05-24 20:04:00,
2013-05-24 13:09:00,70.5,39.3,23.51,South,191,5.4,5.4,32,0.00,,---,0.00,VWS V14.00,2013-05-24 20:09:00,
2013-05-24 13:14:00,70.5,39.3,23.51,South,184,4.0,4.0,32,0.00,,---,0.00,VWS V14.00,2013-05-24 20:14:00,
2013-05-24 13:20:00,70.9,39.6,23.51,SSE,156,5.4,8.3,32,0.00,,---,0.00,VWS V14.00,2013-05-24 20:20:00,
2013-05-24 13:25:00,70.5,39.3,23.51,SSE,166,8.7,8.7,32,0.00,,---,0.00,VWS V14.00,2013-05-24 20:25:00,
2013-05-24 13:30:00,70.5,39.3,23.51,South,186,5.8,5.8,32,0.00,,---,0.00,VWS V14.00,2013-05-24 20:30:00,
2013-05-24 13:35:00,70.7,39.4,23.51,SSW,210,4.0,6.3,32,0.00,,---,0.00,VWS V14.00,2013-05-24 20:35:00,
2013-05-24 13:40:00,70.9,39.6,23.51,SW,235,6.3,6.3,32,0.00,,---,0.00,VWS V14.00,2013-05-24 20:40:00,
2013-05-24 13:45:00,71.1,39.7,23.51,ENE,72,3.1,3.1,32,0.00,,---,0.00,VWS V14.00,2013-05-24 20:45:00,
2013-05-24 13:50:00,71.2,39.9,23.51,NW,304,2.7,3.1,32,0.00,,---,0.00,VWS V14.00,2013-05-24 20:50:00,
2013-05-24 13:55:00,71.8,40.4,23.51,South,189,5.4,5.4,32,0.00,,---,0.00,VWS V14.00,2013-05-24 20:55:00,
2013-05-24 14:00:00,71.6,40.2,23.51,WSW,245,3.6,5.8,32,0.00,,---,0.00,VWS V14.00,2013-05-24 21:00:00,
2013-05-24 14:05:00,72.1,40.7,23.51,South,174,5.4,5.8,32,0.00,,---,0.00,VWS V14.00,2013-05-24 21:05:00,
2013-05-24 14:10:00,72.3,40.8,23.51,SSE,151,5.8,5.8,32,0.00,,---,0.00,VWS V14.00,2013-05-24 21:10:00,
2013-05-24 14:15:00,72.5,41.0,23.48,South,169,6.3,8.3,32,0.00,,---,0.00,VWS V14.00,2013-05-24 21:15:00,
2013-05-24 14:20:00,72.5,41.0,23.48,SSW,196,4.0,5.8,32,0.00,,---,0.00,VWS V14.00,2013-05-24 21:20:00,
2013-05-24 14:25:00,72.3,40.8,23.48,SSW,211,3.6,8.3,32,0.00,,---,0.00,VWS V14.00,2013-05-24 21:25:00,
2013-05-24 14:30:00,72.3,40.8,23.48,SSW,210,2.7,4.0,32,0.00,,---,0.00,VWS V14.00,2013-05-24 21:30:00,
2013-05-24 14:35:00,72.5,41.0,23.48,South,169,5.8,8.1,32,0.00,,---,0.00,VWS V14.00,2013-05-24 21:35:00,
2013-05-24 14:40:00,72.7,41.2,23.48,WSW,237,14.5,14.5,32,0.00,,---,0.00,VWS V14.00,2013-05-24 21:40:00,
2013-05-24 14:45:00,72.9,41.3,23.48,North,0,3.1,4.0,32,0.00,,---,0.00,VWS V14.00,2013-05-24 21:45:00,
2013-05-24 14:50:00,73.0,41.5,23.48,West,272,6.3,6.3,32,0.00,,---,0.00,VWS V14.00,2013-05-24 21:50:00,
2013-05-24 14:55:00,73.2,41.6,23.48,SW,224,4.9,4.9,32,0.00,,---,0.00,VWS V14.00,2013-05-24 21:55:00,
2013-05-24 15:00:00,73.4,41.0,23.48,WSW,244,6.3,6.3,31,0.00,,---,0.00,VWS V14.00,2013-05-24 22:00:00,
2013-05-24 15:05:00,73.4,41.0,23.48,SSW,197,5.8,5.8,31,0.00,,---,0.00,VWS V14.00,2013-05-24 22:05:00,
2013-05-24 15:10:00,73.2,41.6,23.48,South,176,6.3,6.3,32,0.00,,---,0.00,VWS V14.00,2013-05-24 22:10:00,
2013-05-24 15:15:00,73.2,41.6,23.51,SW,225,5.4,10.1,32,0.00,,---,0.00,VWS V14.00,2013-05-24 22:15:00,
2013-05-24 15:20:00,73.2,41.6,23.51,SSW,200,6.3,6.3,32,0.00,,---,0.00,VWS V14.00,2013-05-24 22:20:00,
2013-05-24 15:25:00,73.2,41.6,23.51,South,188,5.8,5.8,32,0.00,,---,0.00,VWS V14.00,2013-05-24 22:25:00,
2013-05-24 15:31:00,73.2,41.6,23.48,SW,222,4.0,6.3,32,0.00,,---,0.00,VWS V14.00,2013-05-24 22:31:00,
2013-05-24 15:36:00,73.2,41.6,23.48,South,191,5.8,6.7,32,0.00,,---,0.00,VWS V14.00,2013-05-24 22:36:00,
2013-05-24 15:41:00,73.4,41.0,23.48,WSW,248,8.1,8.1,31,0.00,,---,0.00,VWS V14.00,2013-05-24 22:41:00,
2013-05-24 15:46:00,73.6,41.1,23.48,SW,230,4.0,5.4,31,0.00,,---,0.00,VWS V14.00,2013-05-24 22:46:00,
2013-05-24 15:51:00,73.8,41.3,23.48,SW,221,7.6,8.1,31,0.00,,---,0.00,VWS V14.00,2013-05-24 22:51:00,
2013-05-24 15:56:00,73.9,41.4,23.48,SSW,206,3.1,5.8,31,0.00,,---,0.00,VWS V14.00,2013-05-24 22:56:00,
2013-05-24 16:01:00,74.1,41.6,23.48,SW,217,4.9,7.6,31,0.00,,---,0.00,VWS V14.00,2013-05-24 23:01:00,
2013-05-24 16:06:00,73.8,41.3,23.48,SSW,211,10.5,11.9,31,0.00,,---,0.00,VWS V14.00,2013-05-24 23:06:00,
2013-05-24 16:11:00,73.6,41.1,23.48,SW,223,3.6,3.6,31,0.00,,---,0.00,VWS V14.00,2013-05-24 23:11:00,
2013-05-24 16:16:00,73.2,41.6,23.48,West,261,3.1,3.1,32,0.00,,---,0.00,VWS V14.00,2013-05-24 23:16:00,
2013-05-24 16:21:00,73.2,41.6,23.48,SSW,193,5.4,6.3,32,0.00,,---,0.00,VWS V14.00,2013-05-24 23:21:00,
2013-05-24 16:26:00,73.6,41.1,23.48,SW,221,6.3,6.3,31,0.00,,---,0.00,VWS V14.00,2013-05-24 23:26:00,
2013-05-24 16:31:00,73.6,41.1,23.48,South,189,3.6,4.0,31,0.00,,---,0.00,VWS V14.00,2013-05-24 23:31:00,
2013-05-24 16:36:00,73.6,41.1,23.48,SW,235,3.1,11.9,31,0.00,,---,0.00,VWS V14.00,2013-05-24 23:36:00,
2013-05-24 16:41:00,73.6,41.1,23.48,SSW,199,5.8,5.8,31,0.00,,---,0.00,VWS V14.00,2013-05-24 23:41:00,
2013-05-24 16:46:00,73.4,41.0,23.48,West,279,4.0,4.0,31,0.00,,---,0.00,VWS V14.00,2013-05-24 23:46:00,
2013-05-24 16:51:00,73.4,41.0,23.48,South,184,3.6,5.4,31,0.00,,---,0.00,VWS V14.00,2013-05-24 23:51:00,
2013-05-24 16:56:00,73.2,41.6,23.48,South,173,8.3,8.3,32,0.00,,---,0.00,VWS V14.00,2013-05-24 23:56:00,
2013-05-24 17:01:00,73.2,41.6,23.48,SSW,203,5.8,5.8,32,0.00,,---,0.00,VWS V14.00,2013-05-25 00:01:00,
2013-05-24 17:07:00,72.9,41.3,23.48,WSW,237,2.7,4.0,32,0.00,,---,0.00,VWS V14.00,2013-05-25 00:07:00,
2013-05-24 17:12:00,73.0,41.5,23.48,SSW,192,5.8,5.8,32,0.00,,---,0.00,VWS V14.00,2013-05-25 00:12:00,
2013-05-24 17:17:00,72.7,41.2,23.48,SSW,211,5.8,5.8,32,0.00,,---,0.00,VWS V14.00,2013-05-25 00:17:00,
2013-05-24 17:22:00,72.5,41.0,23.48,SSW,197,4.0,4.0,32,0.00,,---,0.00,VWS V14.00,2013-05-25 00:22:00,
2013-05-24 17:27:00,72.3,40.8,23.48,SW,228,4.0,4.0,32,0.00,,---,0.00,VWS V14.00,2013-05-25 00:27:00,
2013-05-24 17:32:00,72.5,41.0,23.48,SW,233,5.4,10.5,32,0.00,,---,0.00,VWS V14.00,2013-05-25 00:32:00,
2013-05-24 17:37:00,72.3,40.8,23.48,SSW,211,3.1,3.6,32,0.00,,---,0.00,VWS V14.00,2013-05-25 00:37:00,
2013-05-24 17:42:00,72.1,40.7,23.48,SSW,197,4.0,4.0,32,0.00,,---,0.00,VWS V14.00,2013-05-25 00:42:00,
2013-05-24 17:47:00,71.8,40.4,23.48,SSW,200,5.4,8.3,32,0.00,,---,0.00,VWS V14.00,2013-05-25 00:47:00,
2013-05-24 17:52:00,71.1,39.7,23.48,SSW,208,3.6,5.4,32,0.00,,---,0.00,VWS V14.00,2013-05-25 00:52:00,
2013-05-24 17:57:00,70.7,39.4,23.48,SW,235,5.4,7.6,32,0.00,,---,0.00,VWS V14.00,2013-05-25 00:57:00,
2013-05-24 18:02:00,70.5,39.3,23.48,South,185,4.0,6.3,32,0.00,,---,0.00,VWS V14.00,2013-05-25 01:02:00,
2013-05-24 18:07:00,70.3,39.1,23.48,South,191,4.9,5.8,32,0.00,,---,0.00,VWS V14.00,2013-05-25 01:07:00,
2013-05-24 18:12:00,70.0,38.8,23.48,SSW,204,5.8,5.8,32,0.00,,---,0.00,VWS V14.00,2013-05-25 01:12:00,
2013-05-24 18:17:00,69.6,39.3,23.48,South,188,6.3,6.3,33,0.00,,---,0.00,VWS V14.00,2013-05-25 01:17:00,
2013-05-24 18:22:00,69.3,39.0,23.48,SSE,151,2.7,4.0,33,0.00,,---,0.00,VWS V14.00,2013-05-25 01:22:00,
2013-05-24 18:27:00,68.9,38.6,23.48,SSW,203,4.0,4.0,33,0.00,,---,0.00,VWS V14.00,2013-05-25 01:27:00,
2013-05-24 18:32:00,68.5,38.3,23.48,SW,226,3.6,5.4,33,0.00,,---,0.00,VWS V14.00,2013-05-25 01:32:00,
2013-05-24 18:37:00,68.2,38.0,23.48,SW,221,3.1,3.6,33,0.00,,---,0.00,VWS V14.00,2013-05-25 01:37:00,
2013-05-24 18:42:00,67.6,37.5,23.48,WNW,291,2.7,2.7,33,0.00,,---,0.00,VWS V14.00,2013-05-25 01:42:00,
2013-05-24 18:47:00,67.3,37.2,23.48,SSW,196,4.0,5.4,33,0.00,,---,0.00,VWS V14.00,2013-05-25 01:47:00,
2013-05-24 18:52:00,66.9,36.9,23.48,South,178,5.4,5.4,33,0.00,,---,0.00,VWS V14.00,2013-05-25 01:52:00,
2013-05-24 18:57:00,66.6,36.6,23.48,SSW,208,0.0,0.0,33,0.00,,---,0.00,VWS V14.00,2013-05-25 01:57:00,
2013-05-24 19:02:00,66.0,36.1,23.48,WSW,241,2.2,4.0,33,0.00,,---,0.00,VWS V14.00,2013-05-25 02:02:00,
2013-05-24 19:08:00,65.5,35.6,23.48,SW,222,2.7,4.0,33,0.00,,---,0.00,VWS V14.00,2013-05-25 02:08:00,
2013-05-24 19:13:00,64.8,35.0,23.48,SW,216,4.9,4.9,33,0.00,,---,0.00,VWS V14.00,2013-05-25 02:13:00,
2013-05-24 19:18:00,64.2,35.3,23.48,South,188,0.0,3.6,34,0.00,,---,0.00,VWS V14.00,2013-05-25 02:18:00,
2013-05-24 19:23:00,63.9,35.0,23.48,SSW,212,2.7,2.7,34,0.00,,---,0.00,VWS V14.00,2013-05-25 02:23:00,
2013-05-24 19:28:00,63.3,34.5,23.48,SSW,198,0.0,3.6,34,0.00,,---,0.00,VWS V14.00,2013-05-25 02:28:00,
2013-05-24 19:33:00,62.8,34.0,23.51,SSW,213,2.7,3.1,34,0.00,,---,0.00,VWS V14.00,2013-05-25 02:33:00,
2013-05-24 19:38:00,62.4,33.7,23.51,SW,234,0.0,0.0,34,0.00,,---,0.00,VWS V14.00,2013-05-25 02:38:00,
2013-05-24 19:43:00,61.7,33.1,23.51,WNW,294,0.0,0.0,34,0.00,,---,0.00,VWS V14.00,2013-05-25 02:43:00,
2013-05-24 19:48:00,61.2,32.6,23.48,SW,233,0.0,0.0,34,0.00,,---,0.00,VWS V14.00,2013-05-25 02:48:00,
2013-05-24 19:53:00,61.0,32.4,23.48,West,259,2.7,2.7,34,0.00,,---,0.00,VWS V14.00,2013-05-25 02:53:00,
2013-05-24 19:59:00,60.6,32.8,23.51,SW,230,2.7,3.6,35,0.00,,---,0.00,VWS V14.00,2013-05-25 02:59:00,
2013-05-24 20:04:00,60.4,32.7,23.51,WSW,244,3.1,3.6,35,0.00,,---,0.00,VWS V14.00,2013-05-25 03:04:00,
2013-05-24 20:09:00,60.3,32.5,23.51,WSW,242,0.0,0.0,35,0.00,,---,0.00,VWS V14.00,2013-05-25 03:09:00,
2013-05-24 20:14:00,59.9,32.2,23.51,WSW,243,0.0,2.2,35,0.00,,---,0.00,VWS V14.00,2013-05-25 03:14:00,
2013-05-24 20:19:00,59.5,31.9,23.51,NW,311,2.7,2.7,35,0.00,,---,0.00,VWS V14.00,2013-05-25 03:19:00,
2013-05-24 20:24:00,59.0,31.4,23.51,NW,321,0.0,0.0,35,0.00,,---,0.00,VWS V14.00,2013-05-25 03:24:00,
2013-05-24 20:29:00,58.5,30.9,23.51,NW,321,0.0,0.0,35,0.00,,---,0.00,VWS V14.00,2013-05-25 03:29:00,
2013-05-24 20:34:00,57.7,30.3,23.51,NW,321,0.0,0.0,35,0.00,,---,0.00,VWS V14.00,2013-05-25 03:34:00,
2013-05-24 20:39:00,57.2,29.8,23.51,NW,321,0.0,0.0,35,0.00,,---,0.00,VWS V14.00,2013-05-25 03:39:00,
2013-05-24 20:45:00,56.7,29.3,23.51,NW,321,0.0,0.0,35,0.00,,---,0.00,VWS V14.00,2013-05-25 03:45:00,
2013-05-24 20:50:00,56.1,28.9,23.51,NW,321,0.0,0.0,35,0.00,,---,0.00,VWS V14.00,2013-05-25 03:50:00,
2013-05-24 20:55:00,55.6,28.4,23.51,NW,321,0.0,0.0,35,0.00,,---,0.00,VWS V14.00,2013-05-25 03:55:00,
2013-05-24 21:00:00,55.0,28.6,23.51,NW,321,0.0,0.0,36,0.00,,---,0.00,VWS V14.00,2013-05-25 04:00:00,
2013-05-24 21:01:00,55.0,28.6,23.51,NW,321,0.0,0.0,36,0.00,,---,0.00,VWS V14.00,2013-05-25 04:01:00,
2013-05-24 21:02:00,54.9,28.4,23.51,NW,321,0.0,0.0,36,0.00,,---,0.00,VWS V14.00,2013-05-25 04:02:00,
2013-05-24 21:08:00,54.3,28.0,23.51,NW,321,0.0,0.0,36,0.00,,---,0.00,VWS V14.00,2013-05-25 04:08:00,
2013-05-24 21:13:00,53.8,27.5,23.51,NW,321,0.0,0.0,36,0.00,,---,0.00,VWS V14.00,2013-05-25 04:13:00,
2013-05-24 21:18:00,53.1,26.8,23.51,NW,321,0.0,0.0,36,0.00,,---,0.00,VWS V14.00,2013-05-25 04:18:00,
2013-05-24 21:26:00,52.2,26.0,23.51,NW,321,0.0,0.0,36,0.00,,---,0.00,VWS V14.00,2013-05-25 04:26:00,
2013-05-24 21:31:00,51.6,26.2,23.51,NW,321,0.0,0.0,37,0.00,,---,0.00,VWS V14.00,2013-05-25 04:31:00,
2013-05-24 21:37:00,51.4,26.0,23.51,NW,321,0.0,0.0,37,0.00,,---,0.00,VWS V14.00,2013-05-25 04:37:00,
2013-05-24 21:42:00,51.1,25.7,23.51,NW,321,0.0,0.0,37,0.00,,---,0.00,VWS V14.00,2013-05-25 04:42:00,
2013-05-24 21:47:00,50.7,25.4,23.51,NW,321,0.0,0.0,37,0.00,,---,0.00,VWS V14.00,2013-05-25 04:47:00,
2013-05-24 21:52:00,50.5,25.2,23.51,NW,321,0.0,0.0,37,0.00,,---,0.00,VWS V14.00,2013-05-25 04:52:00,
2013-05-24 21:57:00,50.4,25.1,23.51,NW,321,0.0,0.0,37,0.00,,---,0.00,VWS V14.00,2013-05-25 04:57:00,
2013-05-24 22:02:00,50.2,24.9,23.51,NW,321,0.0,0.0,37,0.00,,---,0.00,VWS V14.00,2013-05-25 05:02:00,
2013-05-24 22:07:00,50.2,24.9,23.51,NW,321,0.0,0.0,37,0.00,,---,0.00,VWS V14.00,2013-05-25 05:07:00,
2013-05-24 22:12:00,49.8,24.6,23.51,NW,321,0.0,0.0,37,0.00,,---,0.00,VWS V14.00,2013-05-25 05:12:00,
2013-05-24 22:17:00,49.6,24.5,23.51,NW,321,0.0,0.0,37,0.00,,---,0.00,VWS V14.00,2013-05-25 05:17:00,
2013-05-24 22:22:00,49.6,24.5,23.51,NW,321,0.0,0.0,37,0.00,,---,0.00,VWS V14.00,2013-05-25 05:22:00,
2013-05-24 22:27:00,49.6,24.5,23.51,West,266,2.7,2.7,37,0.00,,---,0.00,VWS V14.00,2013-05-25 05:27:00,
2013-05-24 22:32:00,49.6,24.5,23.51,West,265,0.0,0.0,37,0.00,,---,0.00,VWS V14.00,2013-05-25 05:32:00,
2013-05-24 22:37:00,49.5,24.3,23.51,West,265,0.0,0.0,37,0.00,,---,0.00,VWS V14.00,2013-05-25 05:37:00,
2013-05-24 22:42:00,49.1,24.0,23.51,West,265,0.0,0.0,37,0.00,,---,0.00,VWS V14.00,2013-05-25 05:42:00,
2013-05-24 22:47:00,48.9,23.8,23.51,West,265,0.0,0.0,37,0.00,,---,0.00,VWS V14.00,2013-05-25 05:47:00,
2013-05-24 22:52:00,48.7,23.6,23.51,West,265,0.0,0.0,37,0.00,,---,0.00,VWS V14.00,2013-05-25 05:52:00,
2013-05-24 22:57:00,48.4,23.3,23.51,West,265,0.0,0.0,37,0.00,,---,0.00,VWS V14.00,2013-05-25 05:57:00,
2013-05-24 23:02:00,48.0,23.0,23.51,West,265,0.0,0.0,37,0.00,,---,0.00,VWS V14.00,2013-05-25 06:02:00,
2013-05-24 23:07:00,47.7,22.7,23.51,West,265,0.0,0.0,37,0.00,,---,0.00,VWS V14.00,2013-05-25 06:07:00,
2013-05-24 23:12:00,47.3,22.4,23.51,West,265,0.0,0.0,37,0.00,,---,0.00,VWS V14.00,2013-05-25 06:12:00,
2013-05-24 23:17:00,46.9,22.0,23.51,West,265,0.0,0.0,37,0.00,,---,0.00,VWS V14.00,2013-05-25 06:17:00,
2013-05-24 23:22:00,46.6,21.7,23.51,West,265,0.0,0.0,37,0.00,,---,0.00,VWS V14.00,2013-05-25 06:22:00,
2013-05-24 23:27:00,46.4,21.6,23.51,West,265,0.0,0.0,37,0.00,,---,0.00,VWS V14.00,2013-05-25 06:27:00,
2013-05-24 23:33:00,46.0,21.9,23.51,West,265,0.0,0.0,38,0.00,,---,0.00,VWS V14.00,2013-05-25 06:33:00,
2013-05-24 23:38:00,46.0,21.9,23.51,West,265,0.0,0.0,38,0.00,,---,0.00,VWS V14.00,2013-05-25 06:38:00,
2013-05-24 23:43:00,45.9,21.7,23.51,West,265,0.0,0.0,38,0.00,,---,0.00,VWS V14.00,2013-05-25 06:43:00,
2013-05-24 23:48:00,45.5,21.4,23.51,West,265,0.0,0.0,38,0.00,,---,0.00,VWS V14.00,2013-05-25 06:48:00,
2013-05-24 23:53:00,45.3,21.2,23.51,West,265,0.0,0.0,38,0.00,,---,0.00,VWS V14.00,2013-05-25 06:53:00,
2013-05-24 23:58:00,45.1,21.1,23.51,West,265,0.0,0.0,38,0.00,,---,0.00,VWS V14.00,2013-05-25 06:58:00,